KCLM/CLM METAR and TAF weather

Enter ICAO airport designator
Station Type Date Time Source
KCLM METAR 2020/04/07 01:53 UTC NOAA

KCLM 070153Z AUTO 28010KT 10SM CLR 10/02 A3002 RMK AO2 SLP166 T01000017


Station Type Date Time Source
KCLM Decoded METAR 2020/04/07 01:53 UTC NOAA

PORT ANGELES FAIRCHILD INTERNATIONAL , WA, United States (KCLM) 48-07N 123-30W 85M
Apr 06, 2020 - 09:53 PM EDT / 2020.04.07 0153 UTC
Wind: from the W (280 degrees) at 12 MPH (10 KT):0
Visibility: 10 mile(s):0
Sky conditions: clear
Temperature: 50.0 F (10.0 C)
Dew Point: 35.1 F (1.7 C)
Relative Humidity: 56%
Pressure (altimeter): 30.02 in. Hg (1016 hPa)
ob: KCLM 070153Z AUTO 28010KT 10SM CLR 10/02 A3002 RMK AO2 SLP166 T01000017
cycle: 2

Station Type Date Time Source
KCLM TAF 2020/04/07 00:00 UTC NOAA

TAF
AMD KCLM 062357Z 0700/0724 30011KT P6SM SCT200
FM070400 29012G18KT P6SM SCT200
FM071000 28007KT P6SM BKN200
FM071400 28006KT P6SM BKN040 BKN200
FM072000 34007KT P6SM SCT050 SCT200

Example: see airport list